Hovedside
METAR-TAF:

METAR-TAF

Lufthavner :

Ängelholm-Helsingborg lufthavn

Helsingborg, Sverige

breddegrad: 56-17-46N, lengdegrad: 012-50-50E, høyde over havet: 21 m

Gjeldene værobservasjon

Denne rapporten ble laget for 16 minutter siden, klokken 01:20 UTC
Vind 16 kt fra Nord
Temperatur 3°C
Luftfuktighet 81%
Trykk 1007 hPa
Sikt 10 km eller mer

METAR: ESTA 110120Z AUTO 35016KT 9999 FEW021/// SCT038/// OVC100/// 03/00 Q1007

Tid: 02:36 (01:36 UTC)

Varsel

Denne rapporten ble laget for 5 timer og 23 minutter siden, klokken 20:13 UTC
Varsel gyldig fra 10. klokken 21 UTC til 10. klokken 23 UTC
Vind 15 kt fra Nordvest
Sikt 10 km eller mer
Brutte skyer i en høyde av 3000 ft

TAF: ESTA 102013Z 1021/1023 31015KT 9999 BKN030

Værobservasjoner og værvarsel for over 4000 flyplasser (METAR- og TAF-rapporter).

Tilgjengelige stasjoner er representert av de røde og gule prikkene på kartet.

Hold musepekeren over prikken for å se navnet på stasjonen.

Klikk så for å se værobservasjoner og -varsler.

For å forandre kartet kan du klikke på den grønne knappen med svart kryss for å zoome inn, på den grønne knappen med strek for å zoome ut, eller på de grønne pilene for å se tilstøtende kart.


METAR-TAF: